createdAt,value
2017-07-26T00:00:14.425Z,17.02
2017-07-26T00:02:46.142Z,17.08
2017-07-26T00:05:17.587Z,17.09
2017-07-26T00:07:49.032Z,17.09
2017-07-26T00:10:22.316Z,17.09
2017-07-26T00:12:53.819Z,17.11
2017-07-26T00:15:25.937Z,17.15
2017-07-26T00:17:57.858Z,17.19
2017-07-26T00:20:29.339Z,17.19
2017-07-26T00:23:00.745Z,17.26
2017-07-26T00:25:32.246Z,17.28
2017-07-26T00:28:04.601Z,17.26
2017-07-26T00:30:35.985Z,17.31
2017-07-26T00:33:07.775Z,17.30
2017-07-26T00:35:39.167Z,17.34
2017-07-26T00:38:10.695Z,17.31
2017-07-26T00:40:42.835Z,17.33
2017-07-26T00:43:14.211Z,17.29
2017-07-26T00:45:45.608Z,17.31
2017-07-26T00:48:17.622Z,17.33
2017-07-26T00:50:49.064Z,17.29
2017-07-26T00:53:20.514Z,17.28
2017-07-26T00:55:51.968Z,17.30
2017-07-26T00:58:23.377Z,17.31
2017-07-26T01:00:54.795Z,17.29
2017-07-26T01:03:26.733Z,17.32
2017-07-26T01:05:58.171Z,17.29
2017-07-26T01:08:29.558Z,17.32
2017-07-26T01:11:00.975Z,17.35
2017-07-26T01:13:32.381Z,17.34
2017-07-26T01:16:04.969Z,17.33
2017-07-26T01:18:37.657Z,17.26
2017-07-26T01:21:09.172Z,17.32
2017-07-26T01:23:40.573Z,17.35
2017-07-26T01:26:12.993Z,17.36
2017-07-26T01:28:44.404Z,17.38
2017-07-26T01:31:15.832Z,17.43
2017-07-26T01:33:48.117Z,17.45
2017-07-26T01:36:20.635Z,17.46
2017-07-26T01:38:52.037Z,17.49
2017-07-26T01:41:24.389Z,17.51
2017-07-26T01:43:55.824Z,17.53
2017-07-26T01:46:27.221Z,17.57
2017-07-26T01:48:58.952Z,17.61
2017-07-26T01:51:30.378Z,17.64
2017-07-26T01:54:02.473Z,17.64
2017-07-26T01:56:33.909Z,17.68
2017-07-26T01:59:05.691Z,17.68
2017-07-26T02:01:37.120Z,17.72
2017-07-26T02:04:09.216Z,17.74
2017-07-26T02:06:41.306Z,17.75
2017-07-26T02:09:12.681Z,17.76
2017-07-26T02:11:44.076Z,17.77
2017-07-26T02:14:18.510Z,17.77
2017-07-26T02:16:50.464Z,17.79
2017-07-26T02:19:21.894Z,17.78
2017-07-26T02:21:53.290Z,17.75
2017-07-26T02:24:25.085Z,17.70
2017-07-26T02:26:56.570Z,17.68
2017-07-26T02:29:27.972Z,17.66
2017-07-26T02:31:59.699Z,17.62
2017-07-26T02:34:31.066Z,17.64
2017-07-26T02:37:02.506Z,17.61
2017-07-26T02:39:34.428Z,17.61
2017-07-26T02:42:07.160Z,17.58
2017-07-26T02:44:38.537Z,17.62
2017-07-26T02:47:10.384Z,17.57
2017-07-26T02:49:41.806Z,17.51
2017-07-26T02:52:13.321Z,17.47
2017-07-26T02:54:44.983Z,17.37
2017-07-26T02:57:16.373Z,17.38
2017-07-26T02:59:47.741Z,17.31
2017-07-26T03:02:20.133Z,17.30
2017-07-26T03:04:51.859Z,17.26
2017-07-26T03:07:23.285Z,17.26
2017-07-26T03:09:54.697Z,17.27
2017-07-26T03:12:26.535Z,17.25
2017-07-26T03:14:58.538Z,17.25
2017-07-26T03:17:30.075Z,17.23
2017-07-26T03:20:01.510Z,17.26
2017-07-26T03:22:33.345Z,17.25
2017-07-26T03:25:04.735Z,17.23
2017-07-26T03:27:36.146Z,17.22
2017-07-26T03:30:08.146Z,17.21
2017-07-26T03:32:39.499Z,17.21
2017-07-26T03:35:10.849Z,17.25
2017-07-26T03:37:42.714Z,17.28
2017-07-26T03:40:14.317Z,17.30
2017-07-26T03:42:45.688Z,17.35
2017-07-26T03:45:17.424Z,17.40
2017-07-26T03:47:48.885Z,17.42
2017-07-26T03:50:20.267Z,17.41
2017-07-26T03:52:52.106Z,17.39
2017-07-26T03:55:23.521Z,17.32
2017-07-26T03:57:55.141Z,17.34
2017-07-26T04:00:26.611Z,17.35
2017-07-26T04:02:58.299Z,17.36
2017-07-26T04:05:29.706Z,17.35
2017-07-26T04:08:01.091Z,17.36
2017-07-26T04:10:32.523Z,17.34
2017-07-26T04:13:03.958Z,17.38
2017-07-26T04:15:35.351Z,17.39
2017-07-26T04:18:07.366Z,17.37
2017-07-26T04:20:38.815Z,17.37
2017-07-26T04:23:10.832Z,17.41
2017-07-26T04:25:42.230Z,17.40
2017-07-26T04:28:13.705Z,17.41
2017-07-26T04:30:45.119Z,17.41
2017-07-26T04:33:16.821Z,17.43
2017-07-26T04:35:48.257Z,17.48
2017-07-26T04:38:19.670Z,17.49
2017-07-26T04:40:51.020Z,17.57
2017-07-26T04:43:22.481Z,17.59
2017-07-26T04:45:53.893Z,17.58
2017-07-26T04:48:25.822Z,17.53
2017-07-26T04:50:57.239Z,17.53
2017-07-26T04:53:28.653Z,17.54
2017-07-26T04:56:00.378Z,17.54
2017-07-26T04:58:31.769Z,17.60
2017-07-26T05:01:03.237Z,17.58
2017-07-26T05:03:35.010Z,17.62
2017-07-26T05:06:08.046Z,17.61
2017-07-26T05:08:39.509Z,17.63
2017-07-26T05:11:10.941Z,17.61
2017-07-26T05:13:42.479Z,17.59
2017-07-26T05:16:14.047Z,17.58
2017-07-26T05:18:45.933Z,17.57
2017-07-26T05:21:17.414Z,17.53
2017-07-26T05:23:48.893Z,17.56
2017-07-26T05:26:20.476Z,17.59
2017-07-26T05:28:52.024Z,17.62
2017-07-26T05:31:23.459Z,17.67
2017-07-26T05:33:55.310Z,17.68
2017-07-26T05:36:26.710Z,17.74
2017-07-26T05:38:58.096Z,17.76
2017-07-26T05:41:29.712Z,17.76
2017-07-26T05:44:01.155Z,17.76
2017-07-26T05:46:32.539Z,17.77
2017-07-26T05:49:04.431Z,17.79
2017-07-26T05:51:35.917Z,17.86
2017-07-26T05:54:07.382Z,17.91
2017-07-26T05:56:38.788Z,17.97
2017-07-26T05:59:10.217Z,18.06
2017-07-26T06:01:41.755Z,18.09
2017-07-26T06:04:15.162Z,18.09
2017-07-26T06:06:46.624Z,18.10
2017-07-26T06:09:18.141Z,18.07
2017-07-26T06:11:49.625Z,18.10
2017-07-26T06:14:21.052Z,18.10
2017-07-26T06:16:52.476Z,18.14
2017-07-26T06:19:24.296Z,18.12
2017-07-26T06:21:55.868Z,18.07
2017-07-26T06:24:27.273Z,18.04
2017-07-26T06:26:58.729Z,17.98
2017-07-26T06:29:30.093Z,17.98
2017-07-26T06:32:03.572Z,18.04
2017-07-26T06:34:36.469Z,18.08
2017-07-26T06:37:07.875Z,18.08
2017-07-26T06:39:40.007Z,18.12
2017-07-26T06:42:12.226Z,18.17
2017-07-26T06:44:44.542Z,18.23
2017-07-26T06:47:18.425Z,18.32
2017-07-26T06:49:53.045Z,18.50
2017-07-26T06:52:24.729Z,18.54
2017-07-26T06:54:56.119Z,18.39
2017-07-26T06:57:27.531Z,18.43
2017-07-26T06:59:59.022Z,18.41
2017-07-26T07:02:30.409Z,18.46
2017-07-26T07:05:02.251Z,18.49
2017-07-26T07:07:33.674Z,18.59
2017-07-26T07:10:06.000Z,18.65
2017-07-26T07:12:37.808Z,18.58
2017-07-26T07:15:10.219Z,18.52
2017-07-26T07:17:42.145Z,18.54
2017-07-26T07:20:15.961Z,18.53
2017-07-26T07:22:47.866Z,18.62
2017-07-26T07:25:19.359Z,18.78
2017-07-26T07:27:50.916Z,18.78
2017-07-26T07:30:22.397Z,18.71
2017-07-26T07:32:54.020Z,18.71
2017-07-26T07:35:25.962Z,18.56
2017-07-26T07:37:57.942Z,18.44
2017-07-26T07:40:29.432Z,18.46
2017-07-26T07:43:05.250Z,18.42
2017-07-26T07:45:37.046Z,18.28
2017-07-26T07:48:09.636Z,18.36
2017-07-26T07:50:42.041Z,18.34
2017-07-26T07:53:14.063Z,18.36
2017-07-26T07:55:48.005Z,18.36
2017-07-26T07:58:24.220Z,18.33
2017-07-26T08:01:03.217Z,18.34
2017-07-26T08:03:40.435Z,18.38
2017-07-26T08:06:13.548Z,18.42
2017-07-26T08:08:47.129Z,18.49
2017-07-26T08:11:23.380Z,18.56
2017-07-26T08:13:57.595Z,18.59
2017-07-26T08:16:30.046Z,18.64
2017-07-26T08:19:07.187Z,18.78
2017-07-26T08:21:40.502Z,18.95
2017-07-26T08:27:24.536Z,19.24
2017-07-26T08:30:19.565Z,19.46
2017-07-26T08:35:48.630Z,19.99
2017-07-26T08:38:39.398Z,20.11
2017-07-26T08:41:18.172Z,20.45
2017-07-26T08:43:56.109Z,20.52
2017-07-26T08:46:37.678Z,20.44
2017-07-26T08:49:24.724Z,20.30
2017-07-26T08:52:07.188Z,20.11
2017-07-26T08:54:47.111Z,20.25
2017-07-26T08:57:31.010Z,20.11
2017-07-26T09:03:08.268Z,20.72
2017-07-26T09:39:48.817Z,23.36
2017-07-26T10:11:01.788Z,23.49
2017-07-26T10:15:30.338Z,24.06
2017-07-26T10:18:28.211Z,25.27
2017-07-26T10:21:26.970Z,25.54
2017-07-26T10:31:40.649Z,25.01
2017-07-26T10:34:19.367Z,24.59
2017-07-26T10:36:54.681Z,23.97
2017-07-26T10:39:30.755Z,24.38
2017-07-26T10:42:06.967Z,24.90
2017-07-26T10:44:40.326Z,25.34
2017-07-26T10:47:14.757Z,25.83
2017-07-26T10:49:47.077Z,25.15
2017-07-26T10:52:21.489Z,25.09
2017-07-26T10:54:55.860Z,25.08
2017-07-26T10:57:29.645Z,25.00
2017-07-26T11:00:09.878Z,24.91
2017-07-26T11:02:54.830Z,24.34
2017-07-26T11:05:40.096Z,24.86
2017-07-26T11:08:21.300Z,24.68
2017-07-26T11:10:57.155Z,25.46
2017-07-26T11:13:31.454Z,26.18
2017-07-26T11:16:07.436Z,26.71
2017-07-26T11:18:41.920Z,26.71
2017-07-26T11:21:17.747Z,26.54
2017-07-26T11:23:51.743Z,26.19
2017-07-26T11:26:28.833Z,26.03
2017-07-26T11:29:05.423Z,26.28
2017-07-26T11:31:46.424Z,27.38
2017-07-26T11:34:29.442Z,27.98
2017-07-26T11:37:10.486Z,27.04
2017-07-26T11:42:38.124Z,27.23
2017-07-26T11:45:10.065Z,27.13
2017-07-26T11:47:42.054Z,26.91
2017-07-26T11:50:13.889Z,26.48
2017-07-26T11:52:45.990Z,26.01
2017-07-26T11:55:17.614Z,25.41
2017-07-26T11:57:49.009Z,25.09
2017-07-26T12:00:20.932Z,24.88
2017-07-26T12:02:52.372Z,24.71
2017-07-26T12:05:23.988Z,24.84
2017-07-26T12:07:55.977Z,24.83
2017-07-26T12:10:27.424Z,25.01
2017-07-26T12:12:58.848Z,25.08
2017-07-26T12:15:30.758Z,24.90
2017-07-26T12:18:03.883Z,24.98
2017-07-26T12:20:35.394Z,25.06
2017-07-26T12:23:10.489Z,25.45
2017-07-26T12:25:42.110Z,26.78
2017-07-26T12:28:13.626Z,28.34
2017-07-26T12:30:45.408Z,28.21
2017-07-26T12:33:16.933Z,27.97
2017-07-26T12:35:48.745Z,27.60
2017-07-26T12:38:20.342Z,26.81
2017-07-26T12:40:51.948Z,27.85
2017-07-26T12:43:23.907Z,27.62
2017-07-26T12:45:55.396Z,27.49
2017-07-26T12:48:26.847Z,26.46
2017-07-26T12:50:58.651Z,26.75
2017-07-26T12:53:30.078Z,26.95
2017-07-26T12:56:03.176Z,28.61
2017-07-26T12:58:34.984Z,29.73
2017-07-26T13:01:06.360Z,30.17
2017-07-26T13:03:37.763Z,31.22
2017-07-26T13:06:09.499Z,31.07
2017-07-26T13:08:40.848Z,32.33
2017-07-26T13:11:12.441Z,32.85
2017-07-26T13:13:44.412Z,33.24
2017-07-26T13:16:16.341Z,33.67
2017-07-26T13:18:47.761Z,34.20
2017-07-26T13:21:19.435Z,33.62
2017-07-26T13:23:50.869Z,32.15
2017-07-26T13:26:22.278Z,32.62
2017-07-26T13:28:54.000Z,33.85
2017-07-26T13:31:25.408Z,34.04
2017-07-26T13:33:57.210Z,32.96
2017-07-26T13:36:28.856Z,32.23
2017-07-26T13:39:00.257Z,32.45
2017-07-26T13:41:31.596Z,33.09
2017-07-26T13:44:05.066Z,35.29
2017-07-26T13:46:36.498Z,35.27
2017-07-26T13:49:08.177Z,35.94
2017-07-26T13:51:39.524Z,35.18
2017-07-26T13:54:13.610Z,34.87
2017-07-26T13:56:46.517Z,35.28
2017-07-26T13:59:19.526Z,36.35
2017-07-26T14:01:51.224Z,37.96
2017-07-26T14:04:25.181Z,37.18
2017-07-26T14:06:59.337Z,36.19
2017-07-26T14:09:34.368Z,34.97
2017-07-26T14:12:09.005Z,33.64
2017-07-26T14:14:44.149Z,33.81
2017-07-26T14:20:12.924Z,33.96
2017-07-26T14:22:45.219Z,32.70
2017-07-26T14:25:17.564Z,32.04
2017-07-26T14:27:48.987Z,30.70
2017-07-26T14:30:20.712Z,29.78
2017-07-26T14:32:52.251Z,29.41
2017-07-26T14:35:23.954Z,29.54
2017-07-26T14:37:55.419Z,30.41
2017-07-26T14:40:27.417Z,32.11
2017-07-26T14:42:59.733Z,31.74
2017-07-26T14:45:31.474Z,32.97
2017-07-26T14:48:05.171Z,34.49
2017-07-26T14:50:37.220Z,33.74
2017-07-26T14:53:09.544Z,33.24
2017-07-26T14:55:41.932Z,32.86
2017-07-26T14:58:14.430Z,32.18
2017-07-26T15:00:46.469Z,32.28
2017-07-26T15:03:18.187Z,31.87
2017-07-26T15:05:50.807Z,32.13
2017-07-26T15:08:22.998Z,32.83
2017-07-26T15:10:55.050Z,33.39
2017-07-26T15:13:26.501Z,32.69
2017-07-26T15:15:59.865Z,32.38
2017-07-26T15:18:31.526Z,32.71
2017-07-26T15:21:03.939Z,32.39
2017-07-26T15:23:35.915Z,32.50
2017-07-26T15:26:08.766Z,32.49
2017-07-26T15:28:40.661Z,34.41
2017-07-26T15:31:13.046Z,33.80
2017-07-26T15:33:44.554Z,33.55
2017-07-26T15:36:21.064Z,32.63
2017-07-26T15:38:52.627Z,32.17
2017-07-26T15:41:24.079Z,31.33
2017-07-26T15:43:55.862Z,30.60
2017-07-26T15:46:27.938Z,30.48
2017-07-26T15:48:59.920Z,30.44
2017-07-26T15:51:31.923Z,28.89
2017-07-26T15:54:08.295Z,28.52
2017-07-26T15:56:40.108Z,28.82
2017-07-26T15:59:11.695Z,29.88
2017-07-26T16:01:44.388Z,30.36
2017-07-26T16:04:16.546Z,30.70
2017-07-26T16:06:48.382Z,30.89
2017-07-26T16:09:20.237Z,29.91
2017-07-26T16:11:51.872Z,29.53
2017-07-26T16:14:24.949Z,30.29
2017-07-26T16:16:56.626Z,29.25
2017-07-26T16:19:28.196Z,28.69
2017-07-26T16:22:00.043Z,27.99
2017-07-26T16:24:31.884Z,27.81
2017-07-26T16:27:03.702Z,27.24
2017-07-26T16:29:35.134Z,26.92
2017-07-26T16:32:07.188Z,26.50
2017-07-26T16:34:38.691Z,25.92
2017-07-26T16:37:10.262Z,25.49
2017-07-26T16:39:43.640Z,25.33
2017-07-26T16:42:16.237Z,25.25
2017-07-26T16:44:49.399Z,25.28
2017-07-26T16:47:21.818Z,25.22
2017-07-26T16:49:53.280Z,25.16
2017-07-26T16:52:26.085Z,25.36
2017-07-26T16:54:57.988Z,25.26
2017-07-26T16:57:30.801Z,25.12
2017-07-26T17:00:07.532Z,24.92
2017-07-26T17:02:40.772Z,24.70
2017-07-26T17:05:13.729Z,24.64
2017-07-26T17:07:46.958Z,24.70
2017-07-26T17:10:20.101Z,24.72
2017-07-26T17:12:51.755Z,24.75
2017-07-26T17:15:24.020Z,24.97
2017-07-26T17:18:05.900Z,24.88
2017-07-26T17:20:44.903Z,24.98
2017-07-26T17:23:19.137Z,24.98
2017-07-26T17:25:50.621Z,25.03
2017-07-26T17:28:22.609Z,25.35
2017-07-26T17:30:56.483Z,25.72
2017-07-26T17:33:29.299Z,25.95
2017-07-26T17:36:03.674Z,26.16
2017-07-26T17:38:35.290Z,26.61
2017-07-26T17:41:07.478Z,26.72
2017-07-26T17:43:42.703Z,26.96
2017-07-26T17:46:14.921Z,26.77
2017-07-26T17:48:48.818Z,26.64
2017-07-26T17:51:21.735Z,26.77
2017-07-26T17:53:53.904Z,26.39
2017-07-26T17:56:29.867Z,26.43
2017-07-26T17:59:14.689Z,26.08
2017-07-26T18:01:49.539Z,25.30
2017-07-26T18:04:21.818Z,25.16
2017-07-26T18:07:01.004Z,24.95
2017-07-26T18:09:35.656Z,24.93
2017-07-26T18:12:13.333Z,24.85
2017-07-26T18:14:45.250Z,24.63
2017-07-26T18:17:19.721Z,24.43
2017-07-26T18:19:52.304Z,24.34
2017-07-26T18:22:24.432Z,24.20
2017-07-26T18:24:57.932Z,24.13
2017-07-26T18:27:34.624Z,24.13
2017-07-26T18:30:11.619Z,23.97
2017-07-26T18:32:45.106Z,23.80
2017-07-26T18:35:22.079Z,23.65
2017-07-26T18:37:58.951Z,23.52
2017-07-26T18:40:35.198Z,23.52
2017-07-26T18:43:12.343Z,23.40
2017-07-26T18:45:44.401Z,23.31
2017-07-26T18:48:20.824Z,23.22
2017-07-26T18:50:52.547Z,23.18
2017-07-26T18:53:24.309Z,23.08
2017-07-26T18:55:56.171Z,23.02
2017-07-26T18:58:27.781Z,23.04
2017-07-26T19:00:59.424Z,22.92
2017-07-26T19:03:31.321Z,22.88
2017-07-26T19:06:03.722Z,22.71
2017-07-26T19:08:35.356Z,22.58
2017-07-26T19:11:08.581Z,22.54
2017-07-26T19:13:40.874Z,22.56
2017-07-26T19:16:12.636Z,22.49
2017-07-26T19:18:44.883Z,22.41
2017-07-26T19:21:16.301Z,22.36
2017-07-26T19:23:48.834Z,22.21
2017-07-26T19:26:20.377Z,22.14
2017-07-26T19:28:52.153Z,22.09
2017-07-26T19:31:23.757Z,22.05
2017-07-26T19:33:55.171Z,22.01
2017-07-26T19:36:27.093Z,21.94
2017-07-26T19:38:58.502Z,21.89
2017-07-26T19:41:30.165Z,21.86
2017-07-26T19:44:02.185Z,21.82
2017-07-26T19:46:34.135Z,21.84
2017-07-26T19:49:05.610Z,21.85
2017-07-26T19:51:37.271Z,21.80
2017-07-26T19:54:15.420Z,21.82
2017-07-26T19:56:47.221Z,21.76
2017-07-26T19:59:35.090Z,21.66
2017-07-26T20:05:04.770Z,21.56
2017-07-26T20:07:38.995Z,21.54
2017-07-26T20:10:12.814Z,21.51
2017-07-26T20:12:45.725Z,21.48
2017-07-26T20:15:18.694Z,21.43
2017-07-26T20:17:53.742Z,21.39
2017-07-26T20:20:29.993Z,21.26
2017-07-26T20:23:06.299Z,21.20
2017-07-26T20:25:41.039Z,21.18
2017-07-26T20:28:15.588Z,21.13
2017-07-26T20:30:48.586Z,21.11
2017-07-26T20:33:20.312Z,21.05
2017-07-26T20:35:51.877Z,20.96
2017-07-26T20:38:24.378Z,20.91
2017-07-26T20:40:56.024Z,20.89
2017-07-26T20:43:28.252Z,20.84
2017-07-26T20:46:00.441Z,20.82
2017-07-26T20:48:32.379Z,20.84
2017-07-26T20:51:04.861Z,20.80
2017-07-26T20:53:36.900Z,20.77
2017-07-26T20:56:13.435Z,20.78
2017-07-26T20:58:45.937Z,20.77
2017-07-26T21:01:18.311Z,20.80
2017-07-26T21:03:50.365Z,20.77
2017-07-26T21:06:23.815Z,20.71
2017-07-26T21:08:56.263Z,20.67
2017-07-26T21:11:28.689Z,20.64
2017-07-26T21:14:00.417Z,20.61
2017-07-26T21:16:32.563Z,20.60
2017-07-26T21:19:06.560Z,20.58
2017-07-26T21:21:38.162Z,20.55
2017-07-26T21:24:10.800Z,20.55
2017-07-26T21:26:42.373Z,20.53
2017-07-26T21:29:14.994Z,20.52
2017-07-26T21:31:46.502Z,20.49
2017-07-26T21:34:20.067Z,20.47
2017-07-26T21:36:53.323Z,20.44
2017-07-26T21:39:25.243Z,20.39
2017-07-26T21:41:57.053Z,20.36
2017-07-26T21:44:30.379Z,20.29
2017-07-26T21:47:03.908Z,20.23
2017-07-26T21:49:37.685Z,20.20
2017-07-26T21:52:09.986Z,20.17
2017-07-26T21:54:42.902Z,20.13
2017-07-26T21:57:15.211Z,20.08
2017-07-26T21:59:47.141Z,20.05
2017-07-26T22:02:20.477Z,20.01
2017-07-26T22:04:52.801Z,19.96
2017-07-26T22:07:24.803Z,19.93
2017-07-26T22:09:57.205Z,19.87
2017-07-26T22:12:31.081Z,19.86
2017-07-26T22:15:03.778Z,19.85
2017-07-26T22:17:37.033Z,19.80
2017-07-26T22:20:08.499Z,19.82
2017-07-26T22:22:39.893Z,19.71
2017-07-26T22:25:11.591Z,19.72
2017-07-26T22:27:43.652Z,19.75
2017-07-26T22:32:50.634Z,19.69
2017-07-26T22:35:22.316Z,19.66
2017-07-26T22:37:54.593Z,19.66
2017-07-26T22:40:26.063Z,19.61
2017-07-26T22:42:59.127Z,19.61
2017-07-26T22:45:31.288Z,19.62
2017-07-26T22:48:03.499Z,19.64
2017-07-26T22:50:36.803Z,19.59
2017-07-26T22:53:09.113Z,19.52
2017-07-26T22:55:40.693Z,19.52
2017-07-26T22:58:14.355Z,19.50
2017-07-26T23:00:46.152Z,19.50
2017-07-26T23:03:17.676Z,19.53
2017-07-26T23:05:49.216Z,19.55
2017-07-26T23:08:22.370Z,19.58
2017-07-26T23:10:56.459Z,19.54
2017-07-26T23:13:30.635Z,19.59
2017-07-26T23:16:08.171Z,19.58
2017-07-26T23:18:44.642Z,19.62
2017-07-26T23:21:21.292Z,19.62
2017-07-26T23:23:53.267Z,19.60
2017-07-26T23:26:24.660Z,19.67
2017-07-26T23:28:55.990Z,19.70
2017-07-26T23:31:58.132Z,19.74
2017-07-26T23:34:29.420Z,19.80
2017-07-26T23:37:00.727Z,19.82
2017-07-26T23:39:32.417Z,19.84
2017-07-26T23:42:04.576Z,19.88
2017-07-26T23:44:36.187Z,19.82
2017-07-26T23:47:07.484Z,19.86
2017-07-26T23:49:38.759Z,19.82
2017-07-26T23:52:14.572Z,19.83
2017-07-26T23:54:45.875Z,19.77
2017-07-26T23:57:17.653Z,19.79
2017-07-26T23:59:48.929Z,19.83
